Pagrindinis puslapis
METAR-TAF:

METAR-TAF

Oro uostai :

Sandnessjøen, Norvegija

platuma: 65-58N, ilguma: 012-28E, Aukštis: 1 m

Dabartinis oras

Ataskaita buvo paskelbta 5 valandos ir 9 minutes, ne 21:50 UTC
Vėjas 7 kt iš Rytų
Temperatūra -5°C
Drėgmė 93%
Slėgis 991 hPa
Matomumas 10 km arba daugiau
Išsisklaidę debesys ne aukštis 800 ft
Su prošvaistėmis ne aukštis 2400 ft
sniegas

METAR: ENST 302150Z 08007KT 9999 -SHSN SCT008 BKN024 M05/M06 Q0991 RMK WIND 300FT 06007KT

Laikas: 03:59 (02:59 UTC)


TAF: trūkstamas

Orai ataskaitas ir orų prognozės (METAR, TAF).

turimą stotys yra geltonos ir raudonos taškus žemėlapyje.

Perkelti pele per norėdami pamatyti stoties vardą.

Tada spustelėkite, norėdami matyti oro stebėjimo ir prognozės.

Norėdami pakeisti žemėlapį: spustelėkite ant žalios mygtukų su juodo kryžiaus žemyn,; žalią mygtuką su brūkšneliu, jei norite nutolinti; arba žalių rodyklių gretimoms žemėlapius.


METAR-TAF: